createdAt,value
2019-02-10T00:01:26.477Z,6.60
2019-02-10T00:03:55.858Z,6.60
2019-02-10T00:06:25.292Z,6.60
2019-02-10T00:08:54.950Z,6.60
2019-02-10T00:11:24.037Z,6.60
2019-02-10T00:13:53.580Z,6.50
2019-02-10T00:16:22.770Z,6.50
2019-02-10T00:18:51.920Z,6.50
2019-02-10T00:21:21.062Z,6.60
2019-02-10T00:23:50.536Z,6.50
2019-02-10T00:26:19.699Z,6.50
2019-02-10T00:28:48.902Z,6.50
2019-02-10T00:31:18.406Z,6.40
2019-02-10T00:33:47.777Z,6.40
2019-02-10T00:36:16.967Z,6.50
2019-02-10T00:38:46.485Z,6.50
2019-02-10T00:41:15.898Z,6.40
2019-02-10T00:43:45.531Z,6.40
2019-02-10T00:46:15.319Z,6.40
2019-02-10T00:48:45.200Z,6.30
2019-02-10T00:51:14.924Z,6.50
2019-02-10T00:53:44.868Z,6.50
2019-02-10T00:56:14.336Z,6.50
2019-02-10T00:58:43.525Z,6.50
2019-02-10T01:01:13.288Z,6.40
2019-02-10T01:03:42.414Z,6.50
2019-02-10T01:06:11.655Z,6.60
2019-02-10T01:08:41.010Z,6.50
2019-02-10T01:11:10.452Z,6.50
2019-02-10T01:13:39.611Z,6.50
2019-02-10T01:16:08.774Z,6.60
2019-02-10T01:18:37.915Z,6.50
2019-02-10T01:21:07.131Z,6.50
2019-02-10T01:23:36.500Z,6.50
2019-02-10T01:26:06.044Z,6.50
2019-02-10T01:28:35.440Z,6.40
2019-02-10T01:31:04.629Z,6.50
2019-02-10T01:33:33.995Z,6.50
2019-02-10T01:36:03.453Z,6.40
2019-02-10T01:38:32.600Z,6.40
2019-02-10T01:41:01.755Z,6.50
2019-02-10T01:43:31.149Z,6.40
2019-02-10T01:46:00.324Z,6.50
2019-02-10T01:48:30.022Z,6.40
2019-02-10T01:50:59.180Z,6.40
2019-02-10T01:53:28.321Z,6.30
2019-02-10T01:55:57.741Z,6.30
2019-02-10T01:58:26.870Z,6.30
2019-02-10T02:00:56.231Z,6.30
2019-02-10T02:03:25.709Z,6.30
2019-02-10T02:05:54.869Z,6.30
2019-02-10T02:08:24.324Z,6.20
2019-02-10T02:10:53.487Z,6.30
2019-02-10T02:13:22.608Z,6.30
2019-02-10T02:15:51.962Z,6.30
2019-02-10T02:18:21.110Z,6.20
2019-02-10T02:20:50.225Z,6.20
2019-02-10T02:23:19.365Z,6.30
2019-02-10T02:25:48.748Z,6.30
2019-02-10T02:28:18.243Z,6.30
2019-02-10T02:30:47.473Z,6.20
2019-02-10T02:33:16.606Z,6.30
2019-02-10T02:35:45.985Z,6.30
2019-02-10T02:38:15.120Z,6.30
2019-02-10T02:40:44.279Z,6.30
2019-02-10T02:43:13.411Z,6.30
2019-02-10T02:45:42.616Z,6.20
2019-02-10T02:48:11.762Z,6.20
2019-02-10T02:50:41.115Z,6.20
2019-02-10T02:53:10.513Z,6.20
2019-02-10T02:55:39.750Z,6.20
2019-02-10T02:58:09.182Z,6.10
2019-02-10T03:00:38.548Z,6.10
2019-02-10T03:03:07.979Z,6.10
2019-02-10T03:05:37.370Z,6.10
2019-02-10T03:08:06.790Z,6.10
2019-02-10T03:10:35.911Z,6.10
2019-02-10T03:13:05.099Z,6.10
2019-02-10T03:15:34.229Z,6.10
2019-02-10T03:18:03.924Z,6.00
2019-02-10T03:20:33.425Z,6.00
2019-02-10T03:23:02.572Z,6.10
2019-02-10T03:25:31.732Z,6.00
2019-02-10T03:28:01.158Z,6.00
2019-02-10T03:30:30.541Z,6.00
2019-02-10T03:32:59.912Z,5.90
2019-02-10T03:35:29.309Z,5.90
2019-02-10T03:37:58.459Z,6.00
2019-02-10T03:40:27.813Z,5.90
2019-02-10T03:42:56.970Z,5.90
2019-02-10T03:45:26.331Z,5.90
2019-02-10T03:47:55.486Z,5.90
2019-02-10T03:50:24.626Z,5.90
2019-02-10T03:52:53.752Z,5.90
2019-02-10T03:55:22.862Z,5.90
2019-02-10T03:57:52.392Z,5.90
2019-02-10T04:00:21.558Z,5.90
2019-02-10T04:02:50.678Z,5.90
2019-02-10T04:05:20.393Z,5.80
2019-02-10T04:07:49.566Z,5.90
2019-02-10T04:10:18.928Z,5.90
2019-02-10T04:12:48.303Z,5.90
2019-02-10T04:15:17.439Z,5.90
2019-02-10T04:17:46.820Z,5.90
2019-02-10T04:20:16.296Z,5.90
2019-02-10T04:22:45.421Z,6.00
2019-02-10T04:25:14.678Z,6.10
2019-02-10T04:27:43.867Z,6.10
2019-02-10T04:30:13.230Z,6.00
2019-02-10T04:32:42.600Z,6.00
2019-02-10T04:35:12.005Z,6.00
2019-02-10T04:37:45.935Z,6.10
2019-02-10T04:40:11.937Z,6.10
2019-02-10T04:42:41.295Z,6.10
2019-02-10T04:45:10.530Z,6.30
2019-02-10T04:47:39.684Z,6.30
2019-02-10T04:50:08.867Z,6.30
2019-02-10T04:52:38.081Z,6.40
2019-02-10T04:55:08.166Z,6.40
2019-02-10T04:57:37.520Z,6.30
2019-02-10T05:00:09.758Z,6.40
2019-02-10T05:02:39.424Z,6.40
2019-02-10T05:05:08.583Z,6.40
2019-02-10T05:07:37.971Z,6.50
2019-02-10T05:10:07.599Z,6.40
2019-02-10T05:12:36.840Z,6.50
2019-02-10T05:15:07.646Z,6.50
2019-02-10T05:17:36.737Z,6.60
2019-02-10T05:20:07.447Z,6.60
2019-02-10T05:22:36.819Z,6.60
2019-02-10T05:25:07.148Z,6.60
2019-02-10T05:27:36.318Z,6.60
2019-02-10T05:30:06.077Z,6.60
2019-02-10T05:32:35.232Z,6.70
2019-02-10T05:35:05.686Z,6.70
2019-02-10T05:37:35.044Z,6.70
2019-02-10T05:40:05.269Z,6.70
2019-02-10T05:42:34.633Z,6.70
2019-02-10T05:45:04.173Z,6.90
2019-02-10T05:47:33.313Z,6.80
2019-02-10T05:50:02.739Z,6.90
2019-02-10T05:52:31.876Z,6.90
2019-02-10T05:55:03.741Z,6.80
2019-02-10T05:57:33.123Z,6.70
2019-02-10T06:00:02.586Z,6.80
2019-02-10T06:02:31.732Z,6.70
2019-02-10T06:05:02.574Z,6.70
2019-02-10T06:07:31.968Z,6.80
2019-02-10T06:10:01.319Z,6.70
2019-02-10T06:12:30.454Z,6.80
2019-02-10T06:14:59.964Z,6.80
2019-02-10T06:17:29.333Z,6.80
2019-02-10T06:19:58.468Z,6.90
2019-02-10T06:22:27.632Z,6.90
2019-02-10T06:24:56.757Z,6.90
2019-02-10T06:27:26.125Z,6.90
2019-02-10T06:29:55.481Z,7.00
2019-02-10T06:32:24.666Z,7.00
2019-02-10T06:34:54.090Z,7.10
2019-02-10T06:37:23.505Z,7.10
2019-02-10T06:39:52.621Z,7.20
2019-02-10T06:42:21.994Z,7.10
2019-02-10T06:44:51.406Z,7.30
2019-02-10T06:47:20.534Z,7.20
2019-02-10T06:49:49.903Z,7.30
2019-02-10T06:52:19.118Z,7.30
2019-02-10T06:54:54.613Z,7.30
2019-02-10T06:57:23.840Z,7.40
2019-02-10T06:59:57.387Z,7.50
2019-02-10T07:02:28.153Z,7.50
2019-02-10T07:04:57.295Z,7.50
2019-02-10T07:07:26.920Z,7.50
2019-02-10T07:09:56.036Z,7.50
2019-02-10T07:12:49.778Z,7.50
2019-02-10T07:16:13.142Z,7.50
2019-02-10T07:19:18.426Z,7.50
2019-02-10T07:21:47.859Z,7.40
2019-02-10T07:24:47.008Z,7.50
2019-02-10T07:27:21.957Z,7.50
2019-02-10T07:30:11.195Z,7.50
2019-02-10T07:33:00.225Z,7.40
2019-02-10T07:35:44.107Z,7.30
2019-02-10T07:38:38.507Z,7.40
2019-02-10T07:41:39.801Z,7.30
2019-02-10T07:44:25.789Z,7.40
2019-02-10T07:47:14.412Z,7.50
2019-02-10T07:50:18.089Z,7.50
2019-02-10T07:53:00.716Z,7.50
2019-02-10T07:55:49.646Z,7.50
2019-02-10T07:58:33.772Z,7.60
2019-02-10T08:01:11.788Z,7.60
2019-02-10T08:04:01.852Z,7.60
2019-02-10T08:06:50.370Z,7.60
2019-02-10T08:09:27.397Z,7.50
2019-02-10T08:11:59.684Z,7.70
2019-02-10T08:14:37.669Z,7.70
2019-02-10T08:17:29.584Z,7.70
2019-02-10T08:20:18.188Z,7.80
2019-02-10T08:22:59.286Z,7.80
2019-02-10T08:25:40.378Z,7.80
2019-02-10T08:28:29.061Z,7.80
2019-02-10T08:31:31.255Z,7.80
2019-02-10T08:34:05.352Z,7.80
2019-02-10T08:36:56.702Z,7.80
2019-02-10T08:39:37.933Z,7.90
2019-02-10T08:42:28.384Z,7.90
2019-02-10T08:45:17.008Z,8.00
2019-02-10T08:47:52.036Z,8.10
2019-02-10T08:50:37.891Z,8.10
2019-02-10T08:53:13.005Z,8.30
2019-02-10T08:55:42.097Z,8.30
2019-02-10T08:58:11.476Z,8.30
2019-02-10T09:00:40.634Z,8.50
2019-02-10T09:03:19.636Z,8.50
2019-02-10T09:05:52.005Z,8.60
2019-02-10T09:08:25.363Z,8.70
2019-02-10T09:10:55.770Z,8.80
2019-02-10T09:13:28.763Z,8.80
2019-02-10T09:16:00.327Z,8.90
2019-02-10T09:18:32.288Z,8.80
2019-02-10T09:21:05.164Z,9.00
2019-02-10T09:23:34.712Z,9.00
2019-02-10T09:26:08.265Z,8.90
2019-02-10T09:28:39.460Z,8.90
2019-02-10T09:31:09.422Z,9.10
2019-02-10T09:33:41.589Z,9.10
2019-02-10T09:36:12.044Z,9.20
2019-02-10T09:38:44.113Z,9.20
2019-02-10T09:41:14.640Z,9.10
2019-02-10T09:43:44.628Z,9.20
2019-02-10T09:46:15.309Z,9.10
2019-02-10T09:48:45.223Z,9.00
2019-02-10T09:51:15.636Z,8.90
2019-02-10T09:53:47.152Z,8.90
2019-02-10T09:56:17.821Z,8.70
2019-02-10T09:58:48.362Z,8.70
2019-02-10T10:01:21.912Z,8.80
2019-02-10T10:03:52.889Z,8.70
2019-02-10T10:06:26.198Z,8.70
2019-02-10T10:08:59.082Z,8.70
2019-02-10T10:11:29.250Z,8.80
2019-02-10T10:13:59.628Z,8.60
2019-02-10T10:16:30.157Z,8.80
2019-02-10T10:19:00.325Z,8.80
2019-02-10T10:21:32.185Z,8.60
2019-02-10T10:24:03.737Z,8.60
2019-02-10T10:26:33.856Z,8.70
2019-02-10T10:29:11.964Z,8.70
2019-02-10T10:32:13.029Z,8.70
2019-02-10T10:35:03.385Z,8.70
2019-02-10T10:37:37.685Z,8.60
2019-02-10T10:40:23.062Z,8.70
2019-02-10T10:42:53.377Z,8.70
2019-02-10T10:45:23.950Z,8.90
2019-02-10T10:47:55.656Z,8.70
2019-02-10T10:50:26.083Z,8.90
2019-02-10T10:52:58.253Z,8.90
2019-02-10T10:55:28.471Z,8.90
2019-02-10T10:57:58.693Z,8.80
2019-02-10T11:00:29.451Z,8.90
2019-02-10T11:03:01.184Z,9.10
2019-02-10T11:05:31.662Z,9.10
2019-02-10T11:08:01.867Z,9.20
2019-02-10T11:10:31.784Z,9.30
2019-02-10T11:13:02.839Z,9.40
2019-02-10T11:15:33.727Z,9.40
2019-02-10T11:18:04.411Z,9.50
2019-02-10T11:20:37.549Z,9.60
2019-02-10T11:23:09.308Z,9.60
2019-02-10T11:25:43.973Z,9.70
2019-02-10T11:28:13.745Z,9.60
2019-02-10T11:30:44.223Z,9.80
2019-02-10T11:33:13.923Z,9.80
2019-02-10T11:35:44.404Z,9.90
2019-02-10T11:38:18.829Z,9.90
2019-02-10T11:40:49.101Z,9.90
2019-02-10T11:43:19.128Z,9.90
2019-02-10T11:45:52.107Z,9.90
2019-02-10T11:48:22.275Z,10.00
2019-02-10T11:50:52.553Z,10.10
2019-02-10T11:53:22.718Z,10.10
2019-02-10T11:55:52.595Z,10.10
2019-02-10T11:58:22.716Z,10.10
2019-02-10T12:00:54.100Z,10.20
2019-02-10T12:03:30.288Z,10.30
2019-02-10T12:06:06.422Z,10.40
2019-02-10T12:08:37.535Z,10.20
2019-02-10T12:11:07.959Z,10.30
2019-02-10T12:13:40.452Z,10.30
2019-02-10T12:16:10.638Z,10.40
2019-02-10T12:18:43.036Z,10.30
2019-02-10T12:21:14.180Z,10.40
2019-02-10T12:23:46.165Z,10.50
2019-02-10T12:26:19.433Z,10.50
2019-02-10T12:28:49.681Z,10.50
2019-02-10T12:31:19.852Z,10.60
2019-02-10T12:33:50.383Z,10.60
2019-02-10T12:36:22.176Z,10.60
2019-02-10T12:38:54.049Z,10.60
2019-02-10T12:41:25.244Z,10.60
2019-02-10T12:43:56.005Z,10.60
2019-02-10T12:46:26.301Z,10.70
2019-02-10T12:48:58.520Z,10.60
2019-02-10T12:51:30.379Z,10.50
2019-02-10T12:54:00.551Z,10.50
2019-02-10T12:56:34.308Z,10.40
2019-02-10T12:59:07.598Z,10.60
2019-02-10T13:01:40.025Z,10.50
2019-02-10T13:04:10.038Z,10.50
2019-02-10T13:06:41.590Z,10.50
2019-02-10T13:09:12.786Z,10.50
2019-02-10T13:11:43.119Z,10.50
2019-02-10T13:14:15.186Z,10.60
2019-02-10T13:16:45.141Z,10.60
2019-02-10T13:19:15.316Z,10.60
2019-02-10T13:21:45.343Z,10.70
2019-02-10T13:24:15.661Z,10.70
2019-02-10T13:26:45.791Z,10.60
2019-02-10T13:29:16.183Z,10.60
2019-02-10T13:31:46.747Z,10.40
2019-02-10T13:34:27.218Z,10.40
2019-02-10T13:36:50.471Z,10.30
2019-02-10T13:39:20.874Z,10.40
2019-02-10T13:41:49.782Z,10.30
2019-02-10T13:44:24.594Z,10.30
2019-02-10T13:46:55.081Z,10.40
2019-02-10T13:49:25.164Z,10.50
2019-02-10T13:51:55.309Z,10.50
2019-02-10T13:54:28.591Z,10.60
2019-02-10T13:57:05.971Z,10.60
2019-02-10T13:59:39.222Z,10.70
2019-02-10T14:02:09.698Z,10.80
2019-02-10T14:04:41.520Z,10.90
2019-02-10T14:07:17.784Z,10.80
2019-02-10T14:09:47.736Z,10.90
2019-02-10T14:12:19.610Z,10.90
2019-02-10T14:14:49.989Z,11.00
2019-02-10T14:17:21.238Z,10.90
2019-02-10T14:19:51.496Z,11.00
2019-02-10T14:22:21.674Z,11.00
2019-02-10T14:24:52.263Z,11.10
2019-02-10T14:27:22.039Z,11.20
2019-02-10T14:29:51.389Z,11.20
2019-02-10T14:32:21.524Z,11.10
2019-02-10T14:34:50.921Z,11.30
2019-02-10T14:37:20.354Z,11.30
2019-02-10T14:39:49.603Z,11.40
2019-02-10T14:42:18.982Z,11.30
2019-02-10T14:44:48.377Z,11.30
2019-02-10T14:47:17.542Z,11.40
2019-02-10T14:49:46.955Z,11.30
2019-02-10T14:52:17.263Z,11.20
2019-02-10T14:54:46.805Z,11.20
2019-02-10T14:57:15.943Z,11.20
2019-02-10T14:59:45.322Z,11.10
2019-02-10T15:02:14.748Z,11.10
2019-02-10T15:04:43.875Z,11.10
2019-02-10T15:07:13.235Z,11.10
2019-02-10T15:09:42.513Z,11.10
2019-02-10T15:12:12.051Z,11.00
2019-02-10T15:14:41.478Z,11.10
2019-02-10T15:17:10.667Z,11.10
2019-02-10T15:19:40.019Z,11.10
2019-02-10T15:22:09.412Z,11.10
2019-02-10T15:24:38.569Z,11.10
2019-02-10T15:27:07.989Z,11.10
2019-02-10T15:29:37.372Z,10.90
2019-02-10T15:32:06.558Z,11.10
2019-02-10T15:34:35.984Z,11.10
2019-02-10T15:37:05.355Z,11.10
2019-02-10T15:39:34.899Z,11.00
2019-02-10T15:42:09.385Z,10.90
2019-02-10T15:44:35.648Z,11.10
2019-02-10T15:47:04.891Z,11.00
2019-02-10T15:49:34.038Z,11.10
2019-02-10T15:52:03.203Z,10.90
2019-02-10T15:54:32.585Z,10.80
2019-02-10T15:57:01.936Z,10.90
2019-02-10T15:59:31.340Z,10.80
2019-02-10T16:02:01.047Z,10.90
2019-02-10T16:04:30.179Z,10.80
2019-02-10T16:06:59.537Z,10.90
2019-02-10T16:09:28.934Z,10.70
2019-02-10T16:11:58.072Z,10.70
2019-02-10T16:14:27.681Z,10.70
2019-02-10T16:16:56.887Z,10.70
2019-02-10T16:19:26.055Z,10.70
2019-02-10T16:21:55.517Z,10.70
2019-02-10T16:24:24.632Z,10.70
2019-02-10T16:26:53.779Z,10.70
2019-02-10T16:29:23.227Z,10.50
2019-02-10T16:31:52.581Z,10.50
2019-02-10T16:34:21.962Z,10.40
2019-02-10T16:36:51.352Z,10.50
2019-02-10T16:39:20.945Z,10.50
2019-02-10T16:41:50.195Z,10.40
2019-02-10T16:44:19.355Z,10.40
2019-02-10T16:46:49.547Z,10.50
2019-02-10T16:49:18.762Z,10.30
2019-02-10T16:51:48.381Z,10.40
2019-02-10T16:54:17.533Z,10.50
2019-02-10T16:56:46.650Z,10.40
2019-02-10T16:59:16.468Z,10.30
2019-02-10T17:01:45.835Z,10.30
2019-02-10T17:04:15.063Z,10.20
2019-02-10T17:06:44.200Z,10.30
2019-02-10T17:09:13.581Z,10.20
2019-02-10T17:11:42.818Z,10.20
2019-02-10T17:14:12.080Z,10.10
2019-02-10T17:16:41.232Z,10.10
2019-02-10T17:19:10.404Z,10.20
2019-02-10T17:21:39.787Z,10.10
2019-02-10T17:24:09.598Z,10.20
2019-02-10T17:26:38.754Z,10.10
2019-02-10T17:29:09.329Z,10.00
2019-02-10T17:31:38.472Z,10.00
2019-02-10T17:34:07.672Z,9.80
2019-02-10T17:36:36.775Z,9.90
2019-02-10T17:39:07.966Z,9.70
2019-02-10T17:41:37.200Z,9.60
2019-02-10T17:44:06.541Z,9.70
2019-02-10T17:46:35.652Z,9.70
2019-02-10T17:49:05.660Z,9.50
2019-02-10T17:51:34.809Z,9.70
2019-02-10T17:54:04.074Z,9.60
2019-02-10T17:56:33.448Z,9.60
2019-02-10T17:59:02.564Z,9.70
2019-02-10T18:01:32.184Z,9.50
2019-02-10T18:04:01.562Z,9.40
2019-02-10T18:06:30.715Z,9.50
2019-02-10T18:09:00.091Z,9.50
2019-02-10T18:11:31.171Z,9.50
2019-02-10T18:14:00.734Z,9.50
2019-02-10T18:16:31.662Z,9.60
2019-02-10T18:19:02.507Z,9.70
2019-02-10T18:21:37.283Z,9.70
2019-02-10T18:24:16.944Z,9.80
2019-02-10T18:26:47.698Z,9.90
2019-02-10T18:29:27.797Z,9.80
2019-02-10T18:32:01.400Z,9.90
2019-02-10T18:34:38.283Z,9.90
2019-02-10T18:37:15.508Z,9.90
2019-02-10T18:39:46.356Z,10.00
2019-02-10T18:42:21.150Z,10.00
2019-02-10T18:45:04.260Z,9.90
2019-02-10T18:47:44.608Z,10.00
2019-02-10T18:50:34.105Z,10.00
2019-02-10T18:53:19.994Z,10.00
2019-02-10T18:55:53.222Z,10.00
2019-02-10T18:58:30.603Z,10.00
2019-02-10T19:01:17.819Z,9.90
2019-02-10T19:03:51.309Z,10.00
2019-02-10T19:06:25.080Z,10.00
2019-02-10T19:09:04.467Z,10.00
2019-02-10T19:11:35.226Z,9.90
2019-02-10T19:14:06.005Z,9.90
2019-02-10T19:16:45.988Z,9.80
2019-02-10T19:19:22.379Z,9.80
2019-02-10T19:22:09.863Z,9.90
2019-02-10T19:24:46.444Z,10.00
2019-02-10T19:27:17.479Z,9.80
2019-02-10T19:29:54.591Z,9.70
2019-02-10T19:32:28.350Z,9.70
2019-02-10T19:35:08.393Z,9.70
2019-02-10T19:37:41.870Z,9.70
2019-02-10T19:40:21.488Z,9.70
2019-02-10T19:42:52.482Z,9.60
2019-02-10T19:45:32.424Z,9.50
2019-02-10T19:48:17.747Z,9.40
2019-02-10T19:50:54.386Z,9.60
2019-02-10T19:53:27.863Z,9.40
2019-02-10T19:55:58.643Z,9.40
2019-02-10T19:58:43.983Z,9.40
2019-02-10T20:01:29.919Z,9.40
2019-02-10T20:04:03.882Z,9.30
2019-02-10T20:06:34.922Z,9.30
2019-02-10T20:09:07.605Z,9.20
2019-02-10T20:11:44.563Z,9.40
2019-02-10T20:14:21.727Z,9.20
2019-02-10T20:16:52.525Z,9.40
2019-02-10T20:19:23.571Z,9.30
2019-02-10T20:21:54.572Z,9.40
2019-02-10T20:24:41.426Z,9.40
2019-02-10T20:27:28.687Z,9.30
2019-02-10T20:30:15.577Z,9.40
2019-02-10T20:32:46.478Z,9.30
2019-02-10T20:35:32.574Z,9.40
2019-02-10T20:38:08.988Z,9.50
2019-02-10T20:40:40.206Z,9.40
2019-02-10T20:43:11.230Z,9.30
2019-02-10T20:45:58.175Z,9.30
2019-02-10T20:48:32.220Z,9.20
2019-02-10T20:51:17.529Z,9.20
2019-02-10T20:54:00.164Z,9.30
2019-02-10T20:56:36.720Z,9.20
2019-02-10T20:59:07.793Z,9.10
2019-02-10T21:01:38.830Z,9.10
2019-02-10T21:04:21.506Z,9.00
2019-02-10T21:06:52.536Z,8.90
2019-02-10T21:09:39.802Z,8.90
2019-02-10T21:12:22.384Z,8.80
2019-02-10T21:15:04.915Z,8.80
2019-02-10T21:17:44.603Z,8.90
2019-02-10T21:20:18.259Z,8.90
2019-02-10T21:22:55.129Z,8.90
2019-02-10T21:25:27.247Z,9.00
2019-02-10T21:28:12.685Z,8.90
2019-02-10T21:30:59.544Z,9.00
2019-02-10T21:33:30.342Z,8.90
2019-02-10T21:36:01.335Z,8.90
2019-02-10T21:38:38.365Z,8.90
2019-02-10T21:41:21.487Z,8.70
2019-02-10T21:43:55.348Z,8.80
2019-02-10T21:46:35.107Z,8.70
2019-02-10T21:49:05.243Z,8.90
2019-02-10T21:51:34.454Z,8.70
2019-02-10T21:54:03.840Z,8.70
2019-02-10T21:56:32.985Z,8.70
2019-02-10T21:59:02.388Z,8.60
2019-02-10T22:01:31.518Z,8.80
2019-02-10T22:04:00.902Z,8.60
2019-02-10T22:06:30.071Z,8.70
2019-02-10T22:08:59.233Z,8.60
2019-02-10T22:11:28.591Z,8.60
2019-02-10T22:13:58.079Z,8.60
2019-02-10T22:16:27.757Z,8.30
2019-02-10T22:18:57.218Z,8.50
2019-02-10T22:21:26.355Z,8.50
2019-02-10T22:23:55.548Z,8.50
2019-02-10T22:26:24.955Z,8.30
2019-02-10T22:28:54.102Z,8.30
2019-02-10T22:31:23.237Z,8.00
2019-02-10T22:33:52.393Z,8.00
2019-02-10T22:36:21.819Z,8.10
2019-02-10T22:38:51.178Z,8.00
2019-02-10T22:41:20.314Z,8.10
2019-02-10T22:43:49.697Z,7.90
2019-02-10T22:46:18.856Z,7.90
2019-02-10T22:48:48.002Z,7.80
2019-02-10T22:51:17.377Z,7.80
2019-02-10T22:53:46.597Z,7.80
2019-02-10T22:56:16.237Z,7.70
2019-02-10T22:58:45.367Z,7.70
2019-02-10T23:01:14.898Z,7.70
2019-02-10T23:03:44.057Z,7.70
2019-02-10T23:06:13.517Z,7.70
2019-02-10T23:08:42.949Z,7.80
2019-02-10T23:11:12.413Z,7.80
2019-02-10T23:13:41.818Z,7.90
2019-02-10T23:16:11.246Z,7.90
2019-02-10T23:18:40.405Z,7.90
2019-02-10T23:21:09.563Z,7.90
2019-02-10T23:23:38.670Z,8.00
2019-02-10T23:26:08.073Z,8.00
2019-02-10T23:28:37.227Z,8.10
2019-02-10T23:31:06.604Z,8.00
2019-02-10T23:33:36.040Z,8.00
2019-02-10T23:36:05.181Z,8.00
2019-02-10T23:38:34.563Z,8.00
2019-02-10T23:41:03.840Z,7.90
2019-02-10T23:43:33.077Z,7.70
2019-02-10T23:46:02.514Z,7.90
2019-02-10T23:48:31.715Z,8.00
2019-02-10T23:51:00.847Z,7.80
2019-02-10T23:53:29.962Z,7.80
2019-02-10T23:55:59.521Z,7.70
2019-02-10T23:58:28.923Z,7.80
